createdAt,value
2017-05-16T00:01:08.264Z,83.90
2017-05-16T00:03:35.216Z,83.50
2017-05-16T00:06:02.172Z,83.20
2017-05-16T00:08:29.140Z,83.40
2017-05-16T00:10:56.740Z,83.80
2017-05-16T00:13:23.674Z,83.40
2017-05-16T00:15:50.596Z,83.70
2017-05-16T00:18:17.558Z,83.80
2017-05-16T00:20:44.482Z,84.60
2017-05-16T00:23:11.429Z,84.90
2017-05-16T00:25:38.398Z,84.60
2017-05-16T00:28:05.325Z,84.70
2017-05-16T00:30:32.246Z,84.30
2017-05-16T00:32:59.431Z,85.00
2017-05-16T00:35:26.360Z,86.80
2017-05-16T00:37:53.405Z,87.00
2017-05-16T00:40:20.390Z,85.00
2017-05-16T00:42:48.065Z,84.90
2017-05-16T00:45:15.016Z,86.10
2017-05-16T00:47:41.980Z,85.40
2017-05-16T00:50:08.895Z,85.00
2017-05-16T00:52:35.841Z,85.50
2017-05-16T00:55:02.803Z,85.50
2017-05-16T00:57:29.729Z,87.50
2017-05-16T00:59:56.649Z,86.10
2017-05-16T01:02:24.425Z,89.30
2017-05-16T01:04:52.102Z,87.70
2017-05-16T01:07:19.040Z,89.60
2017-05-16T01:09:46.018Z,89.90
2017-05-16T01:12:12.949Z,89.60
2017-05-16T01:14:39.875Z,90.00
2017-05-16T01:17:06.852Z,90.00
2017-05-16T01:19:33.783Z,88.50
2017-05-16T01:22:00.721Z,87.10
2017-05-16T01:24:27.682Z,87.40
2017-05-16T01:26:54.693Z,87.80
2017-05-16T01:29:21.625Z,87.90
2017-05-16T01:31:48.581Z,87.70
2017-05-16T01:34:16.281Z,87.70
2017-05-16T01:36:43.233Z,88.00
2017-05-16T01:39:10.180Z,89.00
2017-05-16T01:41:37.692Z,89.20
2017-05-16T01:44:04.637Z,89.40
2017-05-16T01:46:32.315Z,89.80
2017-05-16T01:48:59.299Z,89.50
2017-05-16T01:51:26.238Z,89.20
2017-05-16T01:53:53.179Z,89.40
2017-05-16T01:56:20.153Z,89.20
2017-05-16T01:58:47.081Z,89.80
2017-05-16T02:01:14.029Z,90.10
2017-05-16T02:03:41.019Z,90.20
2017-05-16T02:06:08.028Z,90.20
2017-05-16T02:08:34.954Z,90.20
2017-05-16T02:11:01.935Z,90.20
2017-05-16T02:13:28.939Z,90.10
2017-05-16T02:15:55.896Z,90.00
2017-05-16T02:18:22.807Z,90.30
2017-05-16T02:20:49.725Z,90.10
2017-05-16T02:23:17.423Z,90.00
2017-05-16T02:25:44.396Z,90.20
2017-05-16T02:28:11.317Z,89.80
2017-05-16T02:30:38.250Z,90.50
2017-05-16T02:33:05.211Z,90.60
2017-05-16T02:35:32.180Z,90.50
2017-05-16T02:37:59.209Z,90.20
2017-05-16T02:40:26.148Z,90.70
2017-05-16T02:42:53.096Z,90.50
2017-05-16T02:45:20.036Z,90.50
2017-05-16T02:47:46.954Z,90.20
2017-05-16T02:50:13.937Z,90.40
2017-05-16T02:52:40.920Z,90.20
2017-05-16T02:55:08.582Z,90.30
2017-05-16T02:57:36.306Z,90.00
2017-05-16T03:00:03.244Z,90.30
2017-05-16T03:02:30.169Z,90.30
2017-05-16T03:04:57.133Z,90.30
2017-05-16T03:07:24.076Z,90.00
2017-05-16T03:09:51.012Z,90.00
2017-05-16T03:12:17.960Z,89.60
2017-05-16T03:14:44.895Z,90.00
2017-05-16T03:17:11.813Z,90.30
2017-05-16T03:19:38.832Z,90.30
2017-05-16T03:22:05.765Z,90.20
2017-05-16T03:24:32.697Z,90.10
2017-05-16T03:26:59.653Z,90.80
2017-05-16T03:29:26.584Z,90.60
2017-05-16T03:31:53.501Z,90.80
2017-05-16T03:34:20.474Z,90.60
2017-05-16T03:36:47.408Z,90.70
2017-05-16T03:39:14.352Z,90.60
2017-05-16T03:41:41.308Z,91.10
2017-05-16T03:44:08.232Z,90.70
2017-05-16T03:46:35.172Z,90.70
2017-05-16T03:49:02.140Z,90.50
2017-05-16T03:51:29.074Z,90.30
2017-05-16T03:53:56.001Z,90.80
2017-05-16T03:56:22.958Z,90.70
2017-05-16T03:58:49.893Z,90.60
2017-05-16T04:01:16.817Z,90.80
2017-05-16T04:03:43.780Z,90.60
2017-05-16T04:06:10.728Z,90.70
2017-05-16T04:08:37.676Z,90.60
2017-05-16T04:11:04.652Z,90.60
2017-05-16T04:13:31.585Z,91.20
2017-05-16T04:15:58.519Z,90.70
2017-05-16T04:18:25.504Z,90.50
2017-05-16T04:20:52.434Z,90.30
2017-05-16T04:23:19.355Z,90.50
2017-05-16T04:25:46.312Z,90.60
2017-05-16T04:28:13.231Z,90.30
2017-05-16T04:30:40.205Z,90.20
2017-05-16T04:33:07.173Z,90.20
2017-05-16T04:35:34.868Z,90.20
2017-05-16T04:38:01.933Z,90.10
2017-05-16T04:40:28.876Z,89.20
2017-05-16T04:42:55.809Z,87.90
2017-05-16T04:45:22.746Z,86.70
2017-05-16T04:47:49.729Z,85.90
2017-05-16T04:50:16.680Z,85.50
2017-05-16T04:52:43.607Z,85.30
2017-05-16T04:55:10.556Z,85.10
2017-05-16T04:57:37.780Z,85.00
2017-05-16T05:00:04.725Z,83.90
2017-05-16T05:02:31.685Z,83.50
2017-05-16T05:04:58.602Z,83.20
2017-05-16T05:07:25.541Z,82.10
2017-05-16T05:09:53.249Z,81.00
2017-05-16T05:12:20.180Z,80.70
2017-05-16T05:14:47.106Z,80.70
2017-05-16T05:17:14.083Z,81.20
2017-05-16T05:19:41.049Z,80.00
2017-05-16T05:22:08.004Z,79.20
2017-05-16T05:24:34.957Z,76.70
2017-05-16T05:27:01.933Z,77.10
2017-05-16T05:29:28.868Z,76.50
2017-05-16T05:31:56.069Z,76.50
2017-05-16T05:34:22.989Z,76.80
2017-05-16T05:36:49.928Z,73.70
2017-05-16T05:39:16.899Z,72.10
2017-05-16T05:41:43.841Z,72.70
2017-05-16T05:44:10.760Z,72.00
2017-05-16T05:46:37.716Z,69.70
2017-05-16T05:49:04.646Z,71.30
2017-05-16T05:51:31.591Z,69.90
2017-05-16T05:53:58.644Z,70.90
2017-05-16T05:56:25.578Z,68.30
2017-05-16T05:58:52.516Z,68.20
2017-05-16T06:01:19.498Z,67.40
2017-05-16T06:03:46.426Z,66.50
2017-05-16T06:06:13.357Z,67.00
2017-05-16T06:08:40.334Z,65.30
2017-05-16T06:11:07.253Z,63.80
2017-05-16T06:13:34.186Z,62.40
2017-05-16T06:16:01.141Z,62.70
2017-05-16T06:18:28.065Z,63.20
2017-05-16T06:20:54.991Z,64.10
2017-05-16T06:23:22.690Z,63.00
2017-05-16T06:25:49.629Z,63.80
2017-05-16T06:28:16.569Z,63.50
2017-05-16T06:30:43.589Z,62.80
2017-05-16T06:33:10.554Z,61.60
2017-05-16T06:35:37.512Z,60.00
2017-05-16T06:38:04.473Z,59.20
2017-05-16T06:40:31.392Z,59.00
2017-05-16T06:42:58.344Z,58.40
2017-05-16T06:45:25.277Z,58.00
2017-05-16T06:47:52.251Z,56.40
2017-05-16T06:50:19.214Z,55.80
2017-05-16T06:52:46.150Z,55.50
2017-05-16T06:55:13.141Z,55.20
2017-05-16T06:57:40.875Z,55.80
2017-05-16T07:00:07.837Z,55.20
2017-05-16T07:02:34.813Z,54.00
2017-05-16T07:05:01.752Z,52.80
2017-05-16T07:07:28.678Z,52.50
2017-05-16T07:09:56.522Z,51.60
2017-05-16T07:12:23.460Z,51.80
2017-05-16T07:14:50.466Z,52.20
2017-05-16T07:17:17.404Z,52.20
2017-05-16T07:19:44.343Z,51.70
2017-05-16T07:22:11.335Z,51.20
2017-05-16T07:24:38.344Z,49.80
2017-05-16T07:27:05.288Z,48.70
2017-05-16T07:29:32.258Z,48.20
2017-05-16T07:31:59.198Z,47.20
2017-05-16T07:34:26.141Z,47.90
2017-05-16T07:36:53.117Z,47.50
2017-05-16T07:39:20.071Z,47.40
2017-05-16T07:41:47.010Z,46.60
2017-05-16T07:44:13.969Z,45.50
2017-05-16T07:46:40.912Z,45.30
2017-05-16T07:49:07.854Z,45.10
2017-05-16T07:51:34.816Z,43.00
2017-05-16T07:54:01.787Z,41.80
2017-05-16T07:56:28.720Z,40.60
2017-05-16T07:58:55.709Z,41.40
2017-05-16T08:01:22.640Z,41.60
2017-05-16T08:03:49.582Z,40.90
2017-05-16T08:06:16.560Z,40.20
2017-05-16T08:08:43.504Z,38.90
2017-05-16T08:11:10.466Z,39.20
2017-05-16T08:13:37.401Z,38.80
2017-05-16T08:16:04.346Z,38.90
2017-05-16T08:18:31.327Z,37.50
2017-05-16T08:20:58.272Z,36.50
2017-05-16T08:23:25.233Z,34.90
2017-05-16T08:25:52.204Z,37.20
2017-05-16T08:28:19.158Z,36.40
2017-05-16T08:30:46.092Z,34.40
2017-05-16T08:33:13.644Z,34.40
2017-05-16T08:35:40.596Z,34.00
2017-05-16T08:38:07.554Z,31.30
2017-05-16T08:40:34.538Z,31.80
2017-05-16T08:43:01.529Z,31.60
2017-05-16T08:45:28.501Z,30.30
2017-05-16T08:47:55.432Z,30.30
2017-05-16T08:50:22.374Z,30.00
2017-05-16T08:52:49.362Z,30.10
2017-05-16T08:55:18.046Z,30.10
2017-05-16T08:57:44.988Z,31.20
2017-05-16T09:00:11.966Z,30.20
2017-05-16T09:02:38.926Z,30.40
2017-05-16T09:05:05.977Z,30.50
2017-05-16T09:07:32.986Z,30.00
2017-05-16T09:09:59.937Z,29.90
2017-05-16T09:12:26.869Z,30.30
2017-05-16T09:14:53.833Z,29.80
2017-05-16T09:20:01.989Z,30.00
2017-05-16T09:22:28.944Z,30.40
2017-05-16T09:24:55.881Z,30.10
2017-05-16T09:27:22.866Z,30.30
2017-05-16T09:29:49.814Z,29.00
2017-05-16T09:32:17.500Z,29.40
2017-05-16T09:34:44.494Z,29.10
2017-05-16T09:37:11.457Z,31.60
2017-05-16T09:39:38.417Z,31.30
2017-05-16T09:42:05.423Z,29.70
2017-05-16T09:44:32.388Z,29.50
2017-05-16T09:47:00.089Z,28.90
2017-05-16T09:49:27.063Z,28.90
2017-05-16T09:51:54.029Z,28.90
2017-05-16T09:54:21.032Z,29.80
2017-05-16T09:56:48.055Z,29.20
2017-05-16T09:59:15.006Z,29.00
2017-05-16T10:01:41.985Z,28.50
2017-05-16T10:04:08.928Z,29.10
2017-05-16T10:06:35.881Z,29.70
2017-05-16T10:09:02.931Z,29.20
2017-05-16T10:11:29.961Z,28.70
2017-05-16T10:13:56.905Z,28.80
2017-05-16T10:16:23.900Z,28.10
2017-05-16T10:18:50.841Z,28.20
2017-05-16T10:21:17.778Z,28.10
2017-05-16T10:23:45.513Z,27.70
2017-05-16T10:26:14.045Z,27.60
2017-05-16T10:28:40.993Z,27.90
2017-05-16T10:31:08.711Z,28.80
2017-05-16T10:33:35.703Z,29.20
2017-05-16T10:38:28.421Z,28.20
2017-05-16T10:40:55.411Z,28.90
2017-05-16T10:43:22.373Z,28.90
2017-05-16T10:45:49.352Z,29.70
2017-05-16T10:48:16.365Z,28.50
2017-05-16T10:50:43.238Z,27.60
2017-05-16T10:53:10.180Z,28.10
2017-05-16T10:55:37.167Z,28.70
2017-05-16T10:58:05.841Z,28.40
2017-05-16T11:00:32.789Z,28.80
2017-05-16T11:02:59.749Z,29.30
2017-05-16T11:05:27.486Z,31.90
2017-05-16T11:07:54.426Z,31.40
2017-05-16T11:10:21.424Z,30.00
2017-05-16T11:12:48.373Z,31.00
2017-05-16T11:15:15.330Z,30.00
2017-05-16T11:17:42.322Z,31.50
2017-05-16T11:20:09.417Z,30.60
2017-05-16T11:22:36.358Z,30.50
2017-05-16T11:25:03.334Z,30.70
2017-05-16T11:27:30.273Z,32.70
2017-05-16T11:29:57.233Z,31.20
2017-05-16T11:32:24.188Z,32.50
2017-05-16T11:34:51.147Z,31.50
2017-05-16T11:37:18.090Z,32.10
2017-05-16T11:39:45.067Z,32.60
2017-05-16T11:42:12.061Z,35.10
2017-05-16T11:44:39.040Z,34.00
2017-05-16T11:47:06.714Z,33.40
2017-05-16T11:49:33.716Z,34.20
2017-05-16T11:52:00.700Z,34.50
2017-05-16T11:54:27.645Z,35.00
2017-05-16T11:56:54.593Z,35.30
2017-05-16T11:59:21.598Z,35.20
2017-05-16T12:01:48.529Z,35.30
2017-05-16T12:04:15.525Z,35.80
2017-05-16T12:06:42.486Z,35.70
2017-05-16T12:09:09.426Z,36.00
2017-05-16T12:11:36.418Z,36.10
2017-05-16T12:14:03.384Z,35.80
2017-05-16T12:16:31.061Z,37.40
2017-05-16T12:18:58.129Z,36.60
2017-05-16T12:21:25.091Z,35.80
2017-05-16T12:23:52.030Z,36.00
2017-05-16T12:26:19.013Z,36.70
2017-05-16T12:28:45.974Z,36.00
2017-05-16T12:31:13.721Z,36.70
2017-05-16T12:33:40.683Z,36.70
2017-05-16T12:36:07.705Z,36.20
2017-05-16T12:38:34.652Z,37.00
2017-05-16T12:41:01.580Z,36.40
2017-05-16T12:43:28.571Z,37.00
2017-05-16T12:45:56.273Z,36.70
2017-05-16T12:48:23.492Z,38.00
2017-05-16T12:50:50.439Z,37.60
2017-05-16T12:53:17.401Z,37.30
2017-05-16T12:55:44.347Z,40.10
2017-05-16T12:58:11.337Z,39.50
2017-05-16T13:00:38.337Z,38.80
2017-05-16T13:03:05.337Z,38.10
2017-05-16T13:05:32.289Z,38.30
2017-05-16T13:07:59.990Z,38.30
2017-05-16T13:10:26.958Z,38.60
2017-05-16T13:12:53.939Z,39.50
2017-05-16T13:15:20.881Z,39.20
2017-05-16T13:17:47.908Z,38.80
2017-05-16T13:20:14.853Z,39.10
2017-05-16T13:22:41.903Z,41.00
2017-05-16T13:25:08.893Z,38.30
2017-05-16T13:27:35.913Z,38.90
2017-05-16T13:30:02.915Z,38.70
2017-05-16T13:32:29.884Z,38.80
2017-05-16T13:34:56.828Z,39.00
2017-05-16T13:37:23.819Z,39.50
2017-05-16T13:39:50.768Z,38.70
2017-05-16T13:42:17.709Z,38.60
2017-05-16T13:44:44.694Z,38.30
2017-05-16T13:47:11.641Z,39.10
2017-05-16T13:49:38.582Z,38.30
2017-05-16T13:52:05.540Z,39.00
2017-05-16T13:54:32.508Z,39.00
2017-05-16T13:56:59.449Z,39.40
2017-05-16T13:59:26.408Z,39.20
2017-05-16T14:01:53.399Z,40.50
2017-05-16T14:04:20.608Z,40.30
2017-05-16T14:06:48.301Z,40.00
2017-05-16T14:09:15.253Z,39.70
2017-05-16T14:11:42.272Z,40.30
2017-05-16T14:14:09.275Z,40.40
2017-05-16T14:16:36.224Z,39.70
2017-05-16T14:19:03.372Z,40.60
2017-05-16T14:21:30.341Z,40.30
2017-05-16T14:23:57.343Z,40.50
2017-05-16T14:26:24.295Z,40.40
2017-05-16T14:28:51.285Z,41.20
2017-05-16T14:31:18.984Z,40.70
2017-05-16T14:33:45.960Z,39.50
2017-05-16T14:36:12.897Z,40.60
2017-05-16T14:38:39.850Z,40.50
2017-05-16T14:41:06.820Z,40.30
2017-05-16T14:43:33.761Z,39.60
2017-05-16T14:46:01.484Z,40.10
2017-05-16T14:48:28.428Z,40.00
2017-05-16T14:50:55.404Z,39.70
2017-05-16T14:53:22.377Z,40.90
2017-05-16T14:55:49.325Z,40.40
2017-05-16T14:58:16.318Z,40.00
2017-05-16T15:00:43.263Z,39.90
2017-05-16T15:03:10.210Z,40.50
2017-05-16T15:05:37.218Z,41.00
2017-05-16T15:08:04.189Z,42.00
2017-05-16T15:10:31.149Z,41.60
2017-05-16T15:12:58.186Z,40.90
2017-05-16T15:15:25.129Z,42.30
2017-05-16T15:17:52.061Z,41.80
2017-05-16T15:20:19.037Z,41.30
2017-05-16T15:22:45.989Z,41.30
2017-05-16T15:25:12.997Z,40.80
2017-05-16T15:27:39.956Z,40.40
2017-05-16T15:30:06.909Z,40.60
2017-05-16T15:32:33.930Z,40.70
2017-05-16T15:35:00.877Z,40.70
2017-05-16T15:37:27.822Z,40.50
2017-05-16T15:39:54.780Z,41.00
2017-05-16T15:42:21.737Z,41.40
2017-05-16T15:44:48.701Z,41.20
2017-05-16T15:47:16.745Z,41.50
2017-05-16T15:49:43.701Z,41.20
2017-05-16T15:52:10.666Z,41.30
2017-05-16T15:54:38.465Z,41.30
2017-05-16T15:57:05.402Z,42.50
2017-05-16T15:59:32.372Z,41.60
2017-05-16T16:02:00.312Z,42.30
2017-05-16T16:04:27.259Z,41.90
2017-05-16T16:06:54.222Z,42.50
2017-05-16T16:09:21.189Z,41.90
2017-05-16T16:11:48.161Z,42.40
2017-05-16T16:14:15.882Z,42.70
2017-05-16T16:16:42.851Z,42.80
2017-05-16T16:19:09.836Z,42.30
2017-05-16T16:21:37.508Z,41.40
2017-05-16T16:24:04.470Z,42.40
2017-05-16T16:26:31.437Z,42.60
2017-05-16T16:28:58.464Z,42.70
2017-05-16T16:31:25.405Z,42.10
2017-05-16T16:33:52.360Z,42.60
2017-05-16T16:36:19.345Z,42.70
2017-05-16T16:38:46.692Z,43.20
2017-05-16T16:41:13.689Z,42.70
2017-05-16T16:43:40.628Z,43.00
2017-05-16T16:46:07.588Z,42.90
2017-05-16T16:48:34.559Z,43.00
2017-05-16T16:51:01.517Z,43.50
2017-05-16T16:53:28.458Z,43.70
2017-05-16T16:55:55.424Z,44.00
2017-05-16T16:58:22.410Z,44.10
2017-05-16T17:00:50.101Z,43.60
2017-05-16T17:03:17.068Z,44.00
2017-05-16T17:05:44.014Z,44.10
2017-05-16T17:08:11.747Z,44.20
2017-05-16T17:10:38.680Z,44.50
2017-05-16T17:13:05.637Z,43.70
2017-05-16T17:15:32.625Z,43.40
2017-05-16T17:18:00.327Z,43.40
2017-05-16T17:20:27.355Z,43.60
2017-05-16T17:22:55.070Z,44.00
2017-05-16T17:25:22.011Z,44.80
2017-05-16T17:27:48.984Z,44.20
2017-05-16T17:30:16.753Z,44.20
2017-05-16T17:32:43.717Z,44.50
2017-05-16T17:35:10.704Z,44.60
2017-05-16T17:37:37.649Z,44.50
2017-05-16T17:40:04.600Z,44.70
2017-05-16T17:42:31.640Z,45.40
2017-05-16T17:44:58.596Z,45.70
2017-05-16T17:47:25.571Z,45.60
2017-05-16T17:49:53.273Z,46.50
2017-05-16T17:52:20.244Z,46.10
2017-05-16T17:54:47.220Z,46.20
2017-05-16T17:57:14.899Z,46.70
2017-05-16T17:59:41.876Z,46.50
2017-05-16T18:02:08.817Z,46.70
2017-05-16T18:04:35.805Z,47.00
2017-05-16T18:07:02.765Z,47.40
2017-05-16T18:09:30.445Z,47.40
2017-05-16T18:11:57.432Z,48.00
2017-05-16T18:14:24.367Z,48.00
2017-05-16T18:16:51.372Z,48.10
2017-05-16T18:19:18.357Z,48.40
2017-05-16T18:21:45.312Z,48.50
2017-05-16T18:24:12.265Z,48.50
2017-05-16T18:26:39.254Z,48.70
2017-05-16T18:29:06.190Z,49.20
2017-05-16T18:31:33.152Z,49.10
2017-05-16T18:34:00.136Z,49.40
2017-05-16T18:36:27.085Z,49.60
2017-05-16T18:38:54.036Z,50.00
2017-05-16T18:41:21.026Z,50.30
2017-05-16T18:43:47.986Z,50.30
2017-05-16T18:46:14.957Z,50.50
2017-05-16T18:48:41.969Z,50.60
2017-05-16T18:51:08.997Z,50.60
2017-05-16T18:53:36.675Z,50.70
2017-05-16T18:56:03.628Z,50.90
2017-05-16T18:58:30.591Z,51.20
2017-05-16T19:00:57.576Z,51.40
2017-05-16T19:03:24.620Z,51.10
2017-05-16T19:05:51.585Z,51.50
2017-05-16T19:08:19.276Z,51.70
2017-05-16T19:10:46.248Z,51.90
2017-05-16T19:13:13.196Z,52.20
2017-05-16T19:15:40.155Z,52.60
2017-05-16T19:18:07.152Z,52.90
2017-05-16T19:20:34.172Z,53.00
2017-05-16T19:23:01.871Z,53.50
2017-05-16T19:25:28.816Z,54.00
2017-05-16T19:27:55.819Z,53.70
2017-05-16T19:30:23.504Z,54.80
2017-05-16T19:32:50.461Z,54.50
2017-05-16T19:35:19.637Z,54.70
2017-05-16T19:37:49.047Z,54.90
2017-05-16T19:40:18.485Z,55.00
2017-05-16T19:42:47.894Z,55.20
2017-05-16T19:45:19.348Z,55.30
2017-05-16T19:47:48.772Z,54.90
2017-05-16T19:50:18.180Z,54.60
2017-05-16T19:52:47.616Z,54.40
2017-05-16T19:55:17.021Z,54.30
2017-05-16T19:57:46.465Z,53.90
2017-05-16T20:00:15.869Z,54.00
2017-05-16T20:02:45.292Z,53.60
2017-05-16T20:05:14.690Z,53.00
2017-05-16T20:07:44.121Z,51.80
2017-05-16T20:10:13.525Z,52.40
2017-05-16T20:12:42.961Z,52.90
2017-05-16T20:15:12.386Z,53.10
2017-05-16T20:17:41.837Z,53.00
2017-05-16T20:20:11.239Z,52.90
2017-05-16T20:22:40.681Z,52.60
2017-05-16T20:25:10.093Z,52.70
2017-05-16T20:27:39.524Z,52.40
2017-05-16T20:30:08.920Z,52.40
2017-05-16T20:32:38.344Z,52.50
2017-05-16T20:35:07.773Z,52.90
2017-05-16T20:37:37.918Z,52.70
2017-05-16T20:40:07.354Z,52.60
2017-05-16T20:42:36.757Z,52.70
2017-05-16T20:45:06.219Z,52.90
2017-05-16T20:47:35.624Z,52.80
2017-05-16T20:50:05.075Z,52.80
2017-05-16T20:52:34.485Z,53.00
2017-05-16T20:55:04.732Z,53.20
2017-05-16T20:57:34.872Z,53.40
2017-05-16T21:00:04.309Z,53.60
2017-05-16T21:02:33.706Z,53.40
2017-05-16T21:05:03.128Z,53.50
2017-05-16T21:07:32.533Z,53.60
2017-05-16T21:10:01.955Z,53.60
2017-05-16T21:12:32.099Z,53.60
2017-05-16T21:15:01.526Z,54.20
2017-05-16T21:17:30.915Z,53.80
2017-05-16T21:20:00.352Z,53.90
2017-05-16T21:22:29.760Z,54.00
2017-05-16T21:24:59.215Z,54.50
2017-05-16T21:27:28.616Z,54.60
2017-05-16T21:29:58.053Z,55.60
2017-05-16T21:32:27.513Z,55.00
2017-05-16T21:34:57.706Z,55.00
2017-05-16T21:37:27.104Z,55.00
2017-05-16T21:39:56.537Z,55.20
2017-05-16T21:42:26.672Z,55.80
2017-05-16T21:44:56.114Z,56.50
2017-05-16T21:47:25.514Z,56.80
2017-05-16T21:49:54.971Z,57.10
2017-05-16T21:52:25.110Z,57.10
2017-05-16T21:54:54.549Z,57.40
2017-05-16T21:57:23.935Z,57.30
2017-05-16T21:59:53.362Z,57.40
2017-05-16T22:02:22.764Z,57.50
2017-05-16T22:04:52.204Z,57.80
2017-05-16T22:07:22.356Z,58.40
2017-05-16T22:09:51.794Z,58.50
2017-05-16T22:12:21.200Z,58.50
2017-05-16T22:14:50.653Z,58.70
2017-05-16T22:17:20.055Z,58.90
2017-05-16T22:19:49.496Z,58.90
2017-05-16T22:22:18.906Z,58.90
2017-05-16T22:24:48.332Z,59.00
2017-05-16T22:27:18.476Z,59.10
2017-05-16T22:29:47.893Z,59.50
2017-05-16T22:32:17.300Z,59.50
2017-05-16T22:34:46.752Z,59.80
2017-05-16T22:37:16.165Z,60.20
2017-05-16T22:39:46.337Z,60.30
2017-05-16T22:42:15.736Z,60.80
2017-05-16T22:44:45.901Z,61.00
2017-05-16T22:47:16.045Z,61.20
2017-05-16T22:49:45.477Z,61.20
2017-05-16T22:52:14.877Z,61.00
2017-05-16T22:54:44.317Z,60.70
2017-05-16T22:57:13.729Z,59.90
2017-05-16T22:59:43.157Z,59.50
2017-05-16T23:02:12.590Z,59.50
2017-05-16T23:04:41.993Z,59.60
2017-05-16T23:07:11.428Z,59.60
2017-05-16T23:09:40.832Z,59.60
2017-05-16T23:12:10.269Z,59.80
2017-05-16T23:14:39.686Z,59.40
2017-05-16T23:17:09.128Z,59.20
2017-05-16T23:19:38.532Z,59.40
2017-05-16T23:22:07.957Z,59.50
2017-05-16T23:24:38.128Z,59.50
2017-05-16T23:27:07.525Z,59.60
2017-05-16T23:29:36.966Z,59.80
2017-05-16T23:32:06.374Z,59.70
2017-05-16T23:34:35.821Z,59.90
2017-05-16T23:37:05.221Z,60.00
2017-05-16T23:39:34.657Z,60.10
2017-05-16T23:42:04.099Z,60.00
2017-05-16T23:44:33.535Z,60.30
2017-05-16T23:47:02.945Z,60.30
2017-05-16T23:49:32.378Z,60.30
2017-05-16T23:52:01.782Z,60.70
2017-05-16T23:54:31.233Z,60.90
2017-05-16T23:57:00.644Z,60.90
2017-05-16T23:59:30.088Z,60.90
